sensor_id;sensor_type;location;lat;lon;timestamp;temperature;humidity
67165;SHT31;54093;50.014;19.984;2023-03-29T00:02:50;-0.56;58.04
67165;SHT31;54093;50.014;19.984;2023-03-29T00:12:11;-0.62;58.83
67165;SHT31;54093;50.014;19.984;2023-03-29T00:21:32;-0.79;59.72
67165;SHT31;54093;50.014;19.984;2023-03-29T00:31:06;-0.73;59.87
67165;SHT31;54093;50.014;19.984;2023-03-29T00:40:28;-0.87;61.01
67165;SHT31;54093;50.014;19.984;2023-03-29T00:49:49;-0.91;61.53
67165;SHT31;54093;50.014;19.984;2023-03-29T00:59:14;-0.96;61.03
67165;SHT31;54093;50.014;19.984;2023-03-29T01:08:47;-1.05;61.67
67165;SHT31;54093;50.014;19.984;2023-03-29T01:18:09;-1.03;61.36
67165;SHT31;54093;50.014;19.984;2023-03-29T01:38:05;-1.28;62.78
67165;SHT31;54093;50.014;19.984;2023-03-29T01:57:09;-1.52;64.17
67165;SHT31;54093;50.014;19.984;2023-03-29T02:06:32;-1.58;64.68
67165;SHT31;54093;50.014;19.984;2023-03-29T02:15:53;-1.79;66.37
67165;SHT31;54093;50.014;19.984;2023-03-29T02:25:15;-1.85;67.44
67165;SHT31;54093;50.014;19.984;2023-03-29T02:35:03;-1.85;67.82
67165;SHT31;54093;50.014;19.984;2023-03-29T02:44:29;-1.97;68.84
67165;SHT31;54093;50.014;19.984;2023-03-29T02:53:57;-2.03;68.64
67165;SHT31;54093;50.014;19.984;2023-03-29T03:03:19;-2.10;69.10
67165;SHT31;54093;50.014;19.984;2023-03-29T03:12:41;-2.13;68.67
67165;SHT31;54093;50.014;19.984;2023-03-29T03:22:02;-2.27;68.98
67165;SHT31;54093;50.014;19.984;2023-03-29T03:31:25;-2.33;69.57
67165;SHT31;54093;50.014;19.984;2023-03-29T03:40:54;-2.42;69.38
67165;SHT31;54093;50.014;19.984;2023-03-29T03:50:16;-2.49;69.50
67165;SHT31;54093;50.014;19.984;2023-03-29T03:59:37;-2.56;69.70
67165;SHT31;54093;50.014;19.984;2023-03-29T04:08:58;-2.66;69.92
67165;SHT31;54093;50.014;19.984;2023-03-29T04:18:20;-2.64;69.27
67165;SHT31;54093;50.014;19.984;2023-03-29T04:27:42;-2.64;69.51
67165;SHT31;54093;50.014;19.984;2023-03-29T04:37:03;-2.75;69.30
67165;SHT31;54093;50.014;19.984;2023-03-29T04:46:30;-2.66;68.58
67165;SHT31;54093;50.014;19.984;2023-03-29T04:55:51;-2.68;67.16
67165;SHT31;54093;50.014;19.984;2023-03-29T05:05:15;-2.62;67.11
67165;SHT31;54093;50.014;19.984;2023-03-29T05:14:35;-2.61;67.18
67165;SHT31;54093;50.014;19.984;2023-03-29T05:23:56;-2.55;68.77
67165;SHT31;54093;50.014;19.984;2023-03-29T05:33:17;-2.46;67.03
67165;SHT31;54093;50.014;19.984;2023-03-29T05:42:39;-2.21;65.63
67165;SHT31;54093;50.014;19.984;2023-03-29T05:52:00;-2.00;64.91
67165;SHT31;54093;50.014;19.984;2023-03-29T06:01:24;-1.49;62.71
67165;SHT31;54093;50.014;19.984;2023-03-29T06:10:45;-1.32;61.65
67165;SHT31;54093;50.014;19.984;2023-03-29T06:20:08;-0.94;61.25
67165;SHT31;54093;50.014;19.984;2023-03-29T06:29:30;-0.81;60.96
67165;SHT31;54093;50.014;19.984;2023-03-29T06:38:51;-0.39;57.82
67165;SHT31;54093;50.014;19.984;2023-03-29T06:48:12;0.03;57.41
67165;SHT31;54093;50.014;19.984;2023-03-29T06:57:33;0.33;56.94
67165;SHT31;54093;50.014;19.984;2023-03-29T07:06:55;0.58;56.49
67165;SHT31;54093;50.014;19.984;2023-03-29T07:16:23;1.71;64.33
67165;SHT31;54093;50.014;19.984;2023-03-29T07:25:44;2.50;50.66
67165;SHT31;54093;50.014;19.984;2023-03-29T07:35:09;2.76;50.94
67165;SHT31;54093;50.014;19.984;2023-03-29T07:44:31;2.98;49.81
67165;SHT31;54093;50.014;19.984;2023-03-29T07:53:53;2.83;49.64
67165;SHT31;54093;50.014;19.984;2023-03-29T08:03:14;3.22;47.29
67165;SHT31;54093;50.014;19.984;2023-03-29T08:12:35;3.26;43.34
67165;SHT31;54093;50.014;19.984;2023-03-29T08:21:56;3.74;40.71
67165;SHT31;54093;50.014;19.984;2023-03-29T08:31:19;3.95;40.17
67165;SHT31;54093;50.014;19.984;2023-03-29T08:40:47;4.11;39.66
67165;SHT31;54093;50.014;19.984;2023-03-29T08:50:09;4.80;37.80
67165;SHT31;54093;50.014;19.984;2023-03-29T08:59:32;5.47;41.01
67165;SHT31;54093;50.014;19.984;2023-03-29T09:08:54;5.68;34.73
67165;SHT31;54093;50.014;19.984;2023-03-29T09:37:11;6.38;34.06
67165;SHT31;54093;50.014;19.984;2023-03-29T09:46:55;6.31;35.12
67165;SHT31;54093;50.014;19.984;2023-03-29T09:56:17;6.76;35.21
67165;SHT31;54093;50.014;19.984;2023-03-29T10:05:38;6.67;33.29
67165;SHT31;54093;50.014;19.984;2023-03-29T10:15:00;6.49;34.13
67165;SHT31;54093;50.014;19.984;2023-03-29T10:24:24;6.83;36.07
67165;SHT31;54093;50.014;19.984;2023-03-29T10:33:50;6.95;35.44
67165;SHT31;54093;50.014;19.984;2023-03-29T10:43:22;7.60;33.68
67165;SHT31;54093;50.014;19.984;2023-03-29T10:52:45;7.71;31.64
67165;SHT31;54093;50.014;19.984;2023-03-29T11:12:03;8.16;28.47
67165;SHT31;54093;50.014;19.984;2023-03-29T11:31:10;8.95;31.60
67165;SHT31;54093;50.014;19.984;2023-03-29T11:50:14;8.93;30.95
67165;SHT31;54093;50.014;19.984;2023-03-29T11:59:47;8.99;29.40
67165;SHT31;54093;50.014;19.984;2023-03-29T12:09:22;9.36;30.24
67165;SHT31;54093;50.014;19.984;2023-03-29T12:18:47;9.63;28.60
67165;SHT31;54093;50.014;19.984;2023-03-29T12:37:56;10.22;27.32
67165;SHT31;54093;50.014;19.984;2023-03-29T12:47:22;10.81;28.08
67165;SHT31;54093;50.014;19.984;2023-03-29T13:16:15;11.68;26.95
67165;SHT31;54093;50.014;19.984;2023-03-29T13:26:11;11.69;27.60
67165;SHT31;54093;50.014;19.984;2023-03-29T13:35:58;11.82;27.71
67165;SHT31;54093;50.014;19.984;2023-03-29T13:54:53;11.80;27.89
67165;SHT31;54093;50.014;19.984;2023-03-29T14:04:40;12.20;28.00
67165;SHT31;54093;50.014;19.984;2023-03-29T14:14:04;12.38;26.67
67165;SHT31;54093;50.014;19.984;2023-03-29T14:23:28;12.20;28.12
67165;SHT31;54093;50.014;19.984;2023-03-29T14:32:50;12.04;28.26
67165;SHT31;54093;50.014;19.984;2023-03-29T14:42:17;11.52;29.48
67165;SHT31;54093;50.014;19.984;2023-03-29T14:51:40;11.51;29.49
67165;SHT31;54093;50.014;19.984;2023-03-29T15:01:11;10.85;31.57
67165;SHT31;54093;50.014;19.984;2023-03-29T15:10:36;10.50;31.78
67165;SHT31;54093;50.014;19.984;2023-03-29T15:20:15;10.28;33.04
67165;SHT31;54093;50.014;19.984;2023-03-29T15:29:40;9.99;34.56
67165;SHT31;54093;50.014;19.984;2023-03-29T15:39:03;9.84;34.94
67165;SHT31;54093;50.014;19.984;2023-03-29T15:48:27;9.57;34.32
67165;SHT31;54093;50.014;19.984;2023-03-29T15:57:51;9.30;35.51
67165;SHT31;54093;50.014;19.984;2023-03-29T16:07:14;8.95;35.73
67165;SHT31;54093;50.014;19.984;2023-03-29T16:16:36;8.79;36.34
67165;SHT31;54093;50.014;19.984;2023-03-29T16:26:03;8.72;35.55
67165;SHT31;54093;50.014;19.984;2023-03-29T16:35:34;8.61;36.71
67165;SHT31;54093;50.014;19.984;2023-03-29T16:44:55;8.41;37.47
67165;SHT31;54093;50.014;19.984;2023-03-29T16:54:17;8.25;38.18
67165;SHT31;54093;50.014;19.984;2023-03-29T17:03:39;8.07;42.15
67165;SHT31;54093;50.014;19.984;2023-03-29T17:13:00;7.75;44.99
67165;SHT31;54093;50.014;19.984;2023-03-29T17:22:23;7.31;46.59
67165;SHT31;54093;50.014;19.984;2023-03-29T17:31:44;6.99;47.20
67165;SHT31;54093;50.014;19.984;2023-03-29T17:41:08;6.61;50.21
67165;SHT31;54093;50.014;19.984;2023-03-29T17:50:29;6.30;51.13
67165;SHT31;54093;50.014;19.984;2023-03-29T17:59:50;6.02;51.95
67165;SHT31;54093;50.014;19.984;2023-03-29T18:09:11;5.72;53.20
67165;SHT31;54093;50.014;19.984;2023-03-29T18:18:33;5.34;55.25
67165;SHT31;54093;50.014;19.984;2023-03-29T18:27:54;5.21;52.67
67165;SHT31;54093;50.014;19.984;2023-03-29T18:37:15;5.13;53.60
67165;SHT31;54093;50.014;19.984;2023-03-29T18:46:38;5.13;53.59
67165;SHT31;54093;50.014;19.984;2023-03-29T18:56:02;5.10;55.12
67165;SHT31;54093;50.014;19.984;2023-03-29T19:05:24;4.98;56.16
67165;SHT31;54093;50.014;19.984;2023-03-29T19:14:45;4.90;57.19
67165;SHT31;54093;50.014;19.984;2023-03-29T19:24:12;4.86;55.31
67165;SHT31;54093;50.014;19.984;2023-03-29T19:33:33;4.63;57.84
67165;SHT31;54093;50.014;19.984;2023-03-29T19:42:55;4.56;56.45
67165;SHT31;54093;50.014;19.984;2023-03-29T19:52:16;4.46;57.84
67165;SHT31;54093;50.014;19.984;2023-03-29T20:01:37;4.41;57.18
67165;SHT31;54093;50.014;19.984;2023-03-29T20:11:02;4.49;56.16
67165;SHT31;54093;50.014;19.984;2023-03-29T20:20:23;4.44;55.90
67165;SHT31;54093;50.014;19.984;2023-03-29T20:29:44;4.41;56.47
67165;SHT31;54093;50.014;19.984;2023-03-29T20:39:07;4.35;57.03
67165;SHT31;54093;50.014;19.984;2023-03-29T20:48:28;4.34;57.47
67165;SHT31;54093;50.014;19.984;2023-03-29T20:57:52;4.07;58.50
67165;SHT31;54093;50.014;19.984;2023-03-29T21:07:20;3.84;59.58
67165;SHT31;54093;50.014;19.984;2023-03-29T21:16:41;3.76;58.50
67165;SHT31;54093;50.014;19.984;2023-03-29T21:26:04;3.73;58.19
67165;SHT31;54093;50.014;19.984;2023-03-29T21:35:26;3.79;59.16
67165;SHT31;54093;50.014;19.984;2023-03-29T21:44:48;3.74;59.20
67165;SHT31;54093;50.014;19.984;2023-03-29T21:54:10;3.70;58.58
67165;SHT31;54093;50.014;19.984;2023-03-29T22:03:31;3.84;59.27
67165;SHT31;54093;50.014;19.984;2023-03-29T22:12:52;3.66;60.17
67165;SHT31;54093;50.014;19.984;2023-03-29T22:22:13;3.51;60.26
67165;SHT31;54093;50.014;19.984;2023-03-29T22:31:34;3.39;60.49
67165;SHT31;54093;50.014;19.984;2023-03-29T22:40:55;3.39;61.33
67165;SHT31;54093;50.014;19.984;2023-03-29T22:50:16;3.08;62.33
67165;SHT31;54093;50.014;19.984;2023-03-29T22:59:36;3.16;63.57
67165;SHT31;54093;50.014;19.984;2023-03-29T23:08:57;2.97;63.61
67165;SHT31;54093;50.014;19.984;2023-03-29T23:18:19;2.95;64.50
67165;SHT31;54093;50.014;19.984;2023-03-29T23:27:41;2.83;64.34
67165;SHT31;54093;50.014;19.984;2023-03-29T23:37:04;3.11;61.37
67165;SHT31;54093;50.014;19.984;2023-03-29T23:46:25;3.33;63.62
67165;SHT31;54093;50.014;19.984;2023-03-29T23:55:46;3.38;65.66
